createdAt,value
2023-04-24T00:01:35.136Z,99456.06
2023-04-24T00:05:36.785Z,99460.38
2023-04-24T00:09:38.336Z,99445.88
2023-04-24T00:13:40.768Z,99444.97
2023-04-24T00:17:42.343Z,99449.25
2023-04-24T00:21:44.003Z,99445.84
2023-04-24T00:25:45.571Z,99439.03
2023-04-24T00:29:47.590Z,99445.94
2023-04-24T00:33:49.188Z,99436.50
2023-04-24T00:37:51.082Z,99429.59
2023-04-24T00:41:53.510Z,99428.63
2023-04-24T00:45:55.783Z,99426.88
2023-04-24T00:49:57.414Z,99432.78
2023-04-24T00:53:59.312Z,99446.38
2023-04-24T00:58:00.976Z,99443.75
2023-04-24T01:02:02.652Z,99447.19
2023-04-24T01:06:05.610Z,99448.06
2023-04-24T01:10:08.999Z,99448.88
2023-04-24T01:14:11.080Z,99440.34
2023-04-24T01:18:12.952Z,99439.50
2023-04-24T01:22:15.757Z,99438.59
2023-04-24T01:26:18.453Z,99440.31
2023-04-24T01:30:20.095Z,99433.47
2023-04-24T01:34:22.057Z,99423.94
2023-04-24T01:38:23.599Z,99431.66
2023-04-24T01:42:25.329Z,99421.38
2023-04-24T01:46:27.264Z,99431.63
2023-04-24T01:50:29.050Z,99416.22
2023-04-24T01:54:30.812Z,99414.53
2023-04-24T01:58:32.784Z,99409.41
2023-04-24T02:02:34.868Z,99415.31
2023-04-24T02:06:37.559Z,99408.50
2023-04-24T02:10:39.112Z,99415.31
2023-04-24T02:14:40.683Z,99412.78
2023-04-24T02:18:42.194Z,99411.94
2023-04-24T02:22:43.824Z,99405.03
2023-04-24T02:26:45.682Z,99411.00
2023-04-24T02:30:47.290Z,99407.53
2023-04-24T02:34:48.983Z,99414.38
2023-04-24T02:38:50.668Z,99418.75
2023-04-24T02:42:52.181Z,99428.25
2023-04-24T02:46:53.780Z,99427.47
2023-04-24T02:50:55.427Z,99466.03
2023-04-24T02:54:57.032Z,99488.94
2023-04-24T02:58:58.840Z,99500.53
2023-04-24T03:03:02.848Z,99496.78
2023-04-24T03:07:05.534Z,99503.44
2023-04-24T03:11:07.079Z,99496.34
2023-04-24T03:15:09.297Z,99493.69
2023-04-24T03:19:12.330Z,99487.53
2023-04-24T03:23:24.242Z,99480.56
2023-04-24T03:27:26.036Z,99474.78
2023-04-24T03:31:34.977Z,99475.00
2023-04-24T03:35:37.345Z,99476.03
2023-04-24T03:39:44.209Z,99480.25
2023-04-24T03:43:47.115Z,99497.31
2023-04-24T03:47:48.914Z,99497.16
2023-04-24T03:51:51.635Z,99506.53
2023-04-24T03:55:57.619Z,99514.91
2023-04-24T04:00:00.051Z,99531.78
2023-04-24T04:04:02.286Z,99523.97
2023-04-24T04:08:05.500Z,99532.34
2023-04-24T04:12:08.732Z,99539.97
2023-04-24T04:16:10.609Z,99542.41
2023-04-24T04:20:12.919Z,99546.53
2023-04-24T04:24:15.648Z,99565.22
2023-04-24T04:28:20.913Z,99571.91
2023-04-24T04:32:23.773Z,99577.78
2023-04-24T04:36:25.863Z,99578.38
2023-04-24T04:40:35.395Z,99586.91
2023-04-24T04:44:40.848Z,99587.00
2023-04-24T04:48:45.392Z,99583.59
2023-04-24T04:52:47.070Z,99596.53
2023-04-24T04:57:03.053Z,99596.56
2023-04-24T05:01:06.371Z,99605.16
2023-04-24T05:05:14.401Z,99611.25
2023-04-24T05:09:16.007Z,99617.34
2023-04-24T05:13:35.665Z,99627.72
2023-04-24T05:17:44.997Z,99585.28
2023-04-24T05:21:48.650Z,99622.97
2023-04-24T05:25:50.567Z,99637.47
2023-04-24T05:29:52.476Z,99633.09
2023-04-24T05:33:54.212Z,99640.63
2023-04-24T05:37:56.282Z,99634.09
2023-04-24T05:41:59.114Z,99649.16
2023-04-24T05:46:00.949Z,99644.97
2023-04-24T05:50:02.524Z,99641.91
2023-04-24T05:54:04.352Z,99652.91
2023-04-24T05:58:06.973Z,99662.28
2023-04-24T06:02:10.780Z,99660.66
2023-04-24T06:06:12.461Z,99666.44
2023-04-24T06:10:14.180Z,99676.66
2023-04-24T06:14:18.678Z,99675.97
2023-04-24T06:18:49.219Z,99685.53
2023-04-24T06:22:51.237Z,99682.09
2023-04-24T06:26:52.929Z,99687.19
2023-04-24T06:30:54.544Z,99693.16
2023-04-24T06:34:57.164Z,99692.56
2023-04-24T06:38:59.984Z,99690.78
2023-04-24T06:43:03.684Z,99712.59
2023-04-24T06:47:05.808Z,99719.53
2023-04-24T06:51:07.463Z,99725.44
2023-04-24T06:55:09.419Z,99707.00
2023-04-24T06:59:11.000Z,99711.94
2023-04-24T07:03:12.758Z,99710.25
2023-04-24T07:07:15.348Z,99714.63
2023-04-24T07:11:16.934Z,99717.81
2023-04-24T07:15:18.717Z,99719.78
2023-04-24T07:19:20.388Z,99726.72
2023-04-24T07:23:24.606Z,99729.03
2023-04-24T07:27:26.631Z,99719.44
2023-04-24T07:31:28.188Z,99721.34
2023-04-24T07:35:29.901Z,99719.28
2023-04-24T07:39:31.665Z,99726.56
2023-04-24T07:43:33.150Z,99743.34
2023-04-24T07:47:35.342Z,99744.16
2023-04-24T07:51:39.284Z,99731.47
2023-04-24T07:55:40.926Z,99747.22
2023-04-24T07:59:42.982Z,99735.56
2023-04-24T08:03:45.372Z,99744.94
2023-04-24T08:07:49.701Z,99740.84
2023-04-24T08:11:51.322Z,99741.06
2023-04-24T08:15:52.957Z,99749.41
2023-04-24T08:20:02.108Z,99769.69
2023-04-24T08:24:06.157Z,99762.97
2023-04-24T08:28:10.465Z,99780.19
2023-04-24T08:32:12.064Z,99777.53
2023-04-24T08:36:13.793Z,99798.50
2023-04-24T08:40:16.831Z,99793.81
2023-04-24T08:44:18.779Z,99799.06
2023-04-24T08:48:30.358Z,99801.50
2023-04-24T08:52:34.695Z,99809.34
2023-04-24T08:56:40.254Z,99815.75
2023-04-24T09:00:47.625Z,99819.72
2023-04-24T09:04:50.655Z,99825.22
2023-04-24T09:08:54.984Z,99821.03
2023-04-24T09:12:59.658Z,99824.06
2023-04-24T09:17:01.403Z,99837.84
2023-04-24T09:21:10.785Z,99833.75
2023-04-24T09:25:13.622Z,99831.94
2023-04-24T09:29:19.342Z,99835.56
2023-04-24T09:33:21.194Z,99839.38
2023-04-24T09:37:30.347Z,99839.13
2023-04-24T09:41:33.752Z,99841.16
2023-04-24T09:45:40.535Z,99850.84
2023-04-24T09:49:44.947Z,99835.28
2023-04-24T09:53:47.974Z,99834.88
2023-04-24T09:58:02.525Z,99850.25
2023-04-24T10:02:04.321Z,99857.75
2023-04-24T10:06:10.341Z,99859.50
2023-04-24T10:10:12.260Z,99867.56
2023-04-24T10:14:22.206Z,99887.53
2023-04-24T10:18:25.091Z,99891.69
2023-04-24T10:22:27.883Z,99907.00
2023-04-24T10:26:29.487Z,99907.00
2023-04-24T10:30:38.636Z,99892.84
2023-04-24T10:34:40.302Z,99909.50
2023-04-24T10:38:44.484Z,99904.63
2023-04-24T10:42:50.071Z,99895.47
2023-04-24T10:46:55.729Z,99897.78
2023-04-24T10:50:57.350Z,99913.03
2023-04-24T10:55:02.953Z,99905.41
2023-04-24T10:59:10.629Z,99907.97
2023-04-24T11:03:26.018Z,99909.94
2023-04-24T11:07:27.662Z,99922.69
2023-04-24T11:11:32.354Z,99927.09
2023-04-24T11:15:33.946Z,99927.69
2023-04-24T11:19:37.586Z,99927.75
2023-04-24T11:23:39.710Z,99925.16
2023-04-24T11:27:47.087Z,99929.56
2023-04-24T11:31:52.475Z,99920.44
2023-04-24T11:35:54.393Z,99910.56
2023-04-24T11:39:58.308Z,99910.88
2023-04-24T11:44:00.682Z,99922.28
2023-04-24T11:48:04.532Z,99916.44
2023-04-24T11:52:06.548Z,99913.66
2023-04-24T11:56:10.422Z,99946.78
2023-04-24T12:00:19.818Z,99946.97
2023-04-24T12:04:21.764Z,99944.25
2023-04-24T12:08:30.368Z,99943.00
2023-04-24T12:12:31.960Z,99932.88
2023-04-24T12:16:34.191Z,99934.06
2023-04-24T12:20:36.557Z,99928.63
2023-04-24T12:25:01.633Z,99930.34
2023-04-24T12:29:04.419Z,99937.03
2023-04-24T12:33:06.317Z,99924.34
2023-04-24T12:37:12.499Z,99926.22
2023-04-24T12:41:15.262Z,99934.97
2023-04-24T12:45:18.520Z,99928.88
2023-04-24T12:49:20.176Z,99921.31
2023-04-24T12:53:21.814Z,99906.97
2023-04-24T12:57:24.818Z,99903.59
2023-04-24T13:01:27.606Z,99899.34
2023-04-24T13:05:29.206Z,99923.38
2023-04-24T13:09:31.006Z,99903.47
2023-04-24T13:13:32.593Z,99908.53
2023-04-24T13:17:34.304Z,99915.38
2023-04-24T13:21:35.882Z,99922.22
2023-04-24T13:25:38.489Z,99913.78
2023-04-24T13:29:40.125Z,99913.00
2023-04-24T13:33:42.038Z,99904.38
2023-04-24T13:37:43.765Z,99919.91
2023-04-24T13:41:46.155Z,99911.25
2023-04-24T13:45:47.782Z,99914.41
2023-04-24T13:49:49.414Z,99925.41
2023-04-24T13:53:50.942Z,99926.91
2023-04-24T13:57:53.251Z,99929.31
2023-04-24T14:01:54.879Z,99923.22
2023-04-24T14:05:56.575Z,99917.91
2023-04-24T14:09:58.348Z,99917.09
2023-04-24T14:14:00.385Z,99923.06
2023-04-24T14:18:02.833Z,99922.88
2023-04-24T14:22:05.275Z,99916.00
2023-04-24T14:26:06.924Z,99918.72
2023-04-24T14:30:09.455Z,99909.97
2023-04-24T14:34:11.075Z,99919.22
2023-04-24T14:38:12.682Z,99934.31
2023-04-24T14:42:14.742Z,99950.47
2023-04-24T14:46:16.612Z,99945.16
2023-04-24T14:50:18.618Z,99947.06
2023-04-24T14:54:23.661Z,99946.66
2023-04-24T14:58:25.271Z,99946.88
2023-04-24T15:02:27.269Z,99940.00
2023-04-24T15:06:29.089Z,99935.66
2023-04-24T15:10:30.726Z,99939.09
2023-04-24T15:14:32.326Z,99936.47
2023-04-24T15:18:33.872Z,99940.81
2023-04-24T15:22:35.792Z,99943.28
2023-04-24T15:26:37.453Z,99953.28
2023-04-24T15:30:39.156Z,99962.38
2023-04-24T15:34:40.688Z,99965.50
2023-04-24T15:38:43.471Z,99959.31
2023-04-24T15:42:46.133Z,99958.47
2023-04-24T15:46:47.947Z,99970.44
2023-04-24T15:50:49.832Z,99959.31
2023-04-24T15:54:51.567Z,99957.88
2023-04-24T15:58:53.416Z,99952.09
2023-04-24T16:02:55.138Z,99945.44
2023-04-24T16:06:57.668Z,99937.97
2023-04-24T16:10:59.286Z,99943.28
2023-04-24T16:15:01.365Z,99925.72
2023-04-24T16:19:02.984Z,99919.75
2023-04-24T16:23:04.575Z,99937.47
2023-04-24T16:27:06.167Z,99930.41
2023-04-24T16:31:07.747Z,99929.91
2023-04-24T16:35:09.495Z,99929.09
2023-04-24T16:39:11.142Z,99928.06
2023-04-24T16:43:12.750Z,99931.31
2023-04-24T16:47:14.846Z,99927.81
2023-04-24T16:51:16.420Z,99936.28
2023-04-24T16:55:18.203Z,99931.81
2023-04-24T16:59:20.020Z,99938.41
2023-04-24T17:03:21.874Z,99954.50
2023-04-24T17:07:23.710Z,99960.38
2023-04-24T17:11:25.570Z,99959.44
2023-04-24T17:15:27.283Z,99948.19
2023-04-24T17:19:29.015Z,99951.47
2023-04-24T17:23:30.886Z,99958.22
2023-04-24T17:27:33.162Z,99957.34
2023-04-24T17:31:34.825Z,99956.44
2023-04-24T17:35:36.494Z,99954.56
2023-04-24T17:39:38.672Z,99951.84
2023-04-24T17:43:40.437Z,99955.13
2023-04-24T17:47:42.385Z,99954.13
2023-04-24T17:51:44.019Z,99956.72
2023-04-24T17:55:48.925Z,99953.25
2023-04-24T17:59:50.756Z,99956.50
2023-04-24T18:03:52.787Z,99953.66
2023-04-24T18:07:55.157Z,99953.59
2023-04-24T18:11:57.747Z,99962.09
2023-04-24T18:15:59.392Z,99973.00
2023-04-24T18:20:00.993Z,99967.47
2023-04-24T18:24:02.564Z,99963.94
2023-04-24T18:28:04.131Z,99969.81
2023-04-24T18:32:05.789Z,99979.22
2023-04-24T18:36:07.396Z,99986.03
2023-04-24T18:40:09.682Z,99990.16
2023-04-24T18:44:11.945Z,99997.84
2023-04-24T18:48:13.631Z,99990.91
2023-04-24T18:52:15.206Z,100003.69
2023-04-24T18:56:16.826Z,99998.50
2023-04-24T19:00:18.924Z,100001.16
2023-04-24T19:04:21.614Z,100007.97
2023-04-24T19:08:23.277Z,100004.44
2023-04-24T19:12:24.936Z,100010.38
2023-04-24T19:16:26.588Z,100018.06
2023-04-24T19:20:28.192Z,100021.28
2023-04-24T19:24:33.077Z,100029.78
2023-04-24T19:28:34.634Z,100039.94
2023-04-24T19:32:36.194Z,100037.97
2023-04-24T19:36:37.740Z,100038.72
2023-04-24T19:40:39.475Z,100040.38
2023-04-24T19:44:41.095Z,100038.59
2023-04-24T19:48:42.712Z,100035.81
2023-04-24T19:52:44.211Z,100037.56
2023-04-24T19:56:46.154Z,100041.94
2023-04-24T20:00:47.705Z,100049.63
2023-04-24T20:04:49.452Z,100043.38
2023-04-24T20:08:51.436Z,100048.41
2023-04-24T20:12:53.431Z,100045.78
2023-04-24T20:16:55.293Z,100052.53
2023-04-24T20:20:59.590Z,100048.13
2023-04-24T20:25:03.095Z,100034.38
2023-04-24T20:29:05.052Z,100036.03
2023-04-24T20:33:06.818Z,100030.91
2023-04-24T20:37:08.380Z,100030.22
2023-04-24T20:41:10.339Z,100025.97
2023-04-24T20:45:12.078Z,100021.75
2023-04-24T20:49:13.655Z,100027.00
2023-04-24T20:53:15.257Z,100023.63
2023-04-24T20:57:16.979Z,100010.88
2023-04-24T21:01:18.674Z,100022.06
2023-04-24T21:05:20.653Z,100008.38
2023-04-24T21:09:22.383Z,100023.03
2023-04-24T21:13:24.015Z,100017.97
2023-04-24T21:17:25.742Z,100011.91
2023-04-24T21:21:27.499Z,100003.22
2023-04-24T21:25:30.130Z,100022.06
2023-04-24T21:29:32.693Z,100021.06
2023-04-24T21:33:34.412Z,100010.78
2023-04-24T21:37:37.884Z,100012.50
2023-04-24T21:41:39.759Z,100009.09
2023-04-24T21:45:41.333Z,100019.34
2023-04-24T21:49:43.018Z,100009.56
2023-04-24T21:53:44.783Z,100002.59
2023-04-24T21:57:46.449Z,99992.28
2023-04-24T22:01:48.189Z,99997.53
2023-04-24T22:05:49.858Z,100001.94
2023-04-24T22:09:51.684Z,100011.03
2023-04-24T22:13:54.217Z,99999.56
2023-04-24T22:17:57.560Z,99984.72
2023-04-24T22:21:59.295Z,99987.47
2023-04-24T22:26:00.904Z,99985.97
2023-04-24T22:30:02.696Z,99986.22
2023-04-24T22:34:04.285Z,99982.97
2023-04-24T22:38:06.104Z,99983.84
2023-04-24T22:42:07.685Z,99975.41
2023-04-24T22:46:09.252Z,99988.25
2023-04-24T22:50:11.308Z,99984.66
2023-04-24T22:54:12.932Z,99982.94
2023-04-24T22:58:15.711Z,99973.50
2023-04-24T23:02:17.539Z,99985.44
2023-04-24T23:06:19.126Z,99985.38
2023-04-24T23:10:21.557Z,99977.69
2023-04-24T23:14:24.562Z,99989.63
2023-04-24T23:18:26.318Z,99983.59
2023-04-24T23:22:27.984Z,99981.88
2023-04-24T23:26:29.585Z,99979.25
2023-04-24T23:30:31.189Z,99976.69
2023-04-24T23:34:34.008Z,99971.41
2023-04-24T23:38:43.163Z,99960.19
2023-04-24T23:43:03.213Z,99977.34
2023-04-24T23:47:05.155Z,99973.06
2023-04-24T23:51:06.687Z,99963.66
2023-04-24T23:55:09.450Z,99961.03
2023-04-24T23:59:11.131Z,99963.47
